sensor_id;sensor_type;location;lat;lon;timestamp;temperature;humidity
1123;DHT22;548;48.778;9.252;2023-05-10T03:38:46;14.20;99.90
1123;DHT22;548;48.778;9.252;2023-05-10T03:41:12;14.20;99.90
1123;DHT22;548;48.778;9.252;2023-05-10T03:43:39;14.20;99.90
1123;DHT22;548;48.778;9.252;2023-05-10T03:46:06;14.30;99.90
1123;DHT22;548;48.778;9.252;2023-05-10T03:48:33;14.30;99.90
1123;DHT22;548;48.778;9.252;2023-05-10T03:51:00;14.30;99.90
1123;DHT22;548;48.778;9.252;2023-05-10T03:53:27;14.30;99.90
1123;DHT22;548;48.778;9.252;2023-05-10T03:55:55;14.30;99.90
1123;DHT22;548;48.778;9.252;2023-05-10T03:58:22;14.30;99.90
1123;DHT22;548;48.778;9.252;2023-05-10T04:00:48;14.30;99.90
1123;DHT22;548;48.778;9.252;2023-05-10T04:03:15;14.30;99.90
1123;DHT22;548;48.778;9.252;2023-05-10T04:05:42;14.40;99.90
1123;DHT22;548;48.778;9.252;2023-05-10T04:08:09;14.40;99.90
1123;DHT22;548;48.778;9.252;2023-05-10T04:10:35;14.20;99.90
1123;DHT22;548;48.778;9.252;2023-05-10T04:13:04;14.40;99.90
1123;DHT22;548;48.778;9.252;2023-05-10T04:15:30;14.30;99.90
1123;DHT22;548;48.778;9.252;2023-05-10T04:17:57;14.30;99.90
1123;DHT22;548;48.778;9.252;2023-05-10T04:20:23;14.20;99.90
1123;DHT22;548;48.778;9.252;2023-05-10T04:22:50;14.20;99.90
1123;DHT22;548;48.778;9.252;2023-05-10T04:25:17;14.10;99.90
1123;DHT22;548;48.778;9.252;2023-05-10T04:27:44;14.30;99.90
1123;DHT22;548;48.778;9.252;2023-05-10T04:30:12;14.10;99.90
1123;DHT22;548;48.778;9.252;2023-05-10T04:32:39;14.40;99.90
1123;DHT22;548;48.778;9.252;2023-05-10T04:35:06;14.50;99.90
1123;DHT22;548;48.778;9.252;2023-05-10T04:37:32;14.50;99.90
1123;DHT22;548;48.778;9.252;2023-05-10T04:39:59;14.50;99.90
1123;DHT22;548;48.778;9.252;2023-05-10T04:42:26;14.60;99.90
1123;DHT22;548;48.778;9.252;2023-05-10T04:44:53;14.70;99.90
1123;DHT22;548;48.778;9.252;2023-05-10T04:47:21;14.70;99.90
1123;DHT22;548;48.778;9.252;2023-05-10T04:49:48;14.80;99.90
1123;DHT22;548;48.778;9.252;2023-05-10T04:52:14;14.90;99.90
1123;DHT22;548;48.778;9.252;2023-05-10T04:54:42;14.90;99.90
1123;DHT22;548;48.778;9.252;2023-05-10T04:57:09;14.90;99.90
1123;DHT22;548;48.778;9.252;2023-05-10T04:59:36;14.80;99.90
1123;DHT22;548;48.778;9.252;2023-05-10T05:02:03;15.00;99.90
1123;DHT22;548;48.778;9.252;2023-05-10T05:04:31;15.10;99.90
1123;DHT22;548;48.778;9.252;2023-05-10T05:06:58;15.30;99.90
1123;DHT22;548;48.778;9.252;2023-05-10T05:09:25;15.50;99.90
1123;DHT22;548;48.778;9.252;2023-05-10T05:11:51;15.50;99.90
1123;DHT22;548;48.778;9.252;2023-05-10T05:14:18;15.60;99.90
1123;DHT22;548;48.778;9.252;2023-05-10T05:16:46;15.70;99.90
1123;DHT22;548;48.778;9.252;2023-05-10T05:19:12;16.10;99.90
1123;DHT22;548;48.778;9.252;2023-05-10T05:21:41;16.40;99.90
1123;DHT22;548;48.778;9.252;2023-05-10T05:24:08;16.50;99.90
1123;DHT22;548;48.778;9.252;2023-05-10T05:26:35;16.40;99.90
1123;DHT22;548;48.778;9.252;2023-05-10T05:29:03;16.40;99.90
1123;DHT22;548;48.778;9.252;2023-05-10T05:31:29;16.80;99.90
1123;DHT22;548;48.778;9.252;2023-05-10T05:33:56;16.90;99.90
1123;DHT22;548;48.778;9.252;2023-05-10T05:36:23;16.70;99.90
1123;DHT22;548;48.778;9.252;2023-05-10T05:38:51;17.00;99.90
1123;DHT22;548;48.778;9.252;2023-05-10T05:41:18;17.10;99.90
1123;DHT22;548;48.778;9.252;2023-05-10T05:43:45;17.20;99.90
1123;DHT22;548;48.778;9.252;2023-05-10T05:46:12;17.30;99.90
1123;DHT22;548;48.778;9.252;2023-05-10T05:48:39;17.40;99.90
1123;DHT22;548;48.778;9.252;2023-05-10T05:51:05;17.50;99.90
1123;DHT22;548;48.778;9.252;2023-05-10T05:53:32;17.50;99.90
1123;DHT22;548;48.778;9.252;2023-05-10T05:56:01;17.60;99.90
1123;DHT22;548;48.778;9.252;2023-05-10T05:58:29;17.60;99.90
1123;DHT22;548;48.778;9.252;2023-05-10T06:00:56;17.70;99.90
1123;DHT22;548;48.778;9.252;2023-05-10T06:03:22;17.70;99.90
1123;DHT22;548;48.778;9.252;2023-05-10T06:05:49;17.90;99.90
1123;DHT22;548;48.778;9.252;2023-05-10T06:08:16;17.80;99.90
1123;DHT22;548;48.778;9.252;2023-05-10T06:10:43;17.90;99.90
1123;DHT22;548;48.778;9.252;2023-05-10T06:13:12;17.70;99.90
1123;DHT22;548;48.778;9.252;2023-05-10T06:15:38;17.80;99.90
1123;DHT22;548;48.778;9.252;2023-05-10T06:18:05;17.50;99.90
1123;DHT22;548;48.778;9.252;2023-05-10T06:20:32;17.40;99.90
1123;DHT22;548;48.778;9.252;2023-05-10T06:22:59;17.50;99.90
1123;DHT22;548;48.778;9.252;2023-05-10T06:25:26;17.40;99.90
1123;DHT22;548;48.778;9.252;2023-05-10T06:27:52;17.60;99.90
1123;DHT22;548;48.778;9.252;2023-05-10T06:30:24;17.70;99.90
1123;DHT22;548;48.778;9.252;2023-05-10T06:32:53;18.00;99.90
1123;DHT22;548;48.778;9.252;2023-05-10T06:35:20;18.50;99.90
1123;DHT22;548;48.778;9.252;2023-05-10T06:37:47;18.10;99.90
1123;DHT22;548;48.778;9.252;2023-05-10T06:40:14;17.80;99.90
1123;DHT22;548;48.778;9.252;2023-05-10T06:42:41;17.80;99.90
1123;DHT22;548;48.778;9.252;2023-05-10T06:45:09;17.60;99.90
1123;DHT22;548;48.778;9.252;2023-05-10T06:47:38;17.60;99.90
1123;DHT22;548;48.778;9.252;2023-05-10T06:50:06;17.30;99.90
1123;DHT22;548;48.778;9.252;2023-05-10T06:52:33;17.00;99.90
1123;DHT22;548;48.778;9.252;2023-05-10T06:55:00;16.90;99.90
1123;DHT22;548;48.778;9.252;2023-05-10T06:57:32;16.60;99.90
1123;DHT22;548;48.778;9.252;2023-05-10T06:59:59;16.30;99.90
1123;DHT22;548;48.778;9.252;2023-05-10T07:02:26;16.40;99.90
1123;DHT22;548;48.778;9.252;2023-05-10T07:04:54;16.50;99.90
1123;DHT22;548;48.778;9.252;2023-05-10T07:07:21;16.50;99.90
1123;DHT22;548;48.778;9.252;2023-05-10T07:09:47;16.60;99.90
1123;DHT22;548;48.778;9.252;2023-05-10T07:12:15;16.60;99.90
1123;DHT22;548;48.778;9.252;2023-05-10T12:51:46;21.30;96.10
1123;DHT22;548;48.778;9.252;2023-05-10T12:54:12;21.10;96.60
1123;DHT22;548;48.778;9.252;2023-05-10T12:56:39;20.80;95.40
1123;DHT22;548;48.778;9.252;2023-05-10T12:59:06;20.40;94.60
1123;DHT22;548;48.778;9.252;2023-05-10T13:01:35;20.30;95.10
1123;DHT22;548;48.778;9.252;2023-05-10T13:04:01;20.20;95.00
1123;DHT22;548;48.778;9.252;2023-05-10T13:06:28;19.80;94.90
1123;DHT22;548;48.778;9.252;2023-05-10T13:08:56;19.80;95.70
1123;DHT22;548;48.778;9.252;2023-05-10T13:11:23;19.60;95.50
1123;DHT22;548;48.778;9.252;2023-05-10T13:13:49;19.80;96.10
1123;DHT22;548;48.778;9.252;2023-05-10T13:16:16;19.70;95.90
1123;DHT22;548;48.778;9.252;2023-05-10T13:18:43;19.60;96.60
1123;DHT22;548;48.778;9.252;2023-05-10T13:21:09;19.60;96.70
1123;DHT22;548;48.778;9.252;2023-05-10T13:23:36;19.40;97.20
1123;DHT22;548;48.778;9.252;2023-05-10T13:26:04;19.50;97.30
1123;DHT22;548;48.778;9.252;2023-05-10T13:28:31;19.80;97.40
1123;DHT22;548;48.778;9.252;2023-05-10T13:30:57;19.80;97.30
1123;DHT22;548;48.778;9.252;2023-05-10T13:33:25;19.70;97.30
1123;DHT22;548;48.778;9.252;2023-05-10T13:35:52;19.80;97.60
1123;DHT22;548;48.778;9.252;2023-05-10T13:38:18;20.10;96.80
1123;DHT22;548;48.778;9.252;2023-05-10T13:40:45;20.50;96.20
1123;DHT22;548;48.778;9.252;2023-05-10T13:43:13;20.60;95.40
1123;DHT22;548;48.778;9.252;2023-05-10T13:45:40;20.80;94.60
1123;DHT22;548;48.778;9.252;2023-05-10T13:48:07;20.90;94.80
1123;DHT22;548;48.778;9.252;2023-05-10T13:50:33;20.90;94.60
1123;DHT22;548;48.778;9.252;2023-05-10T13:53:00;21.20;93.80
1123;DHT22;548;48.778;9.252;2023-05-10T13:55:27;21.10;93.30
1123;DHT22;548;48.778;9.252;2023-05-10T13:57:54;20.70;93.50
1123;DHT22;548;48.778;9.252;2023-05-10T14:00:22;20.90;94.30
1123;DHT22;548;48.778;9.252;2023-05-10T14:02:48;20.80;94.30
1123;DHT22;548;48.778;9.252;2023-05-10T14:05:15;20.90;94.00
1123;DHT22;548;48.778;9.252;2023-05-10T14:07:42;21.30;93.50
1123;DHT22;548;48.778;9.252;2023-05-10T14:10:09;21.30;92.90
1123;DHT22;548;48.778;9.252;2023-05-10T14:12:36;21.20;92.60
1123;DHT22;548;48.778;9.252;2023-05-10T14:15:03;21.10;92.80
1123;DHT22;548;48.778;9.252;2023-05-10T14:17:33;21.30;92.60
1123;DHT22;548;48.778;9.252;2023-05-10T14:19:59;21.40;91.90
1123;DHT22;548;48.778;9.252;2023-05-10T14:22:26;21.70;92.00
1123;DHT22;548;48.778;9.252;2023-05-10T14:24:53;22.00;92.30
1123;DHT22;548;48.778;9.252;2023-05-10T14:27:20;22.30;90.70
1123;DHT22;548;48.778;9.252;2023-05-10T14:29:47;22.00;90.80
1123;DHT22;548;48.778;9.252;2023-05-10T14:32:13;21.70;89.20
1123;DHT22;548;48.778;9.252;2023-05-10T14:34:41;21.70;89.70
1123;DHT22;548;48.778;9.252;2023-05-10T14:37:09;21.30;89.50
1123;DHT22;548;48.778;9.252;2023-05-10T14:39:36;21.50;89.60
1123;DHT22;548;48.778;9.252;2023-05-10T14:42:03;21.70;87.70
1123;DHT22;548;48.778;9.252;2023-05-10T14:44:30;21.80;87.20
1123;DHT22;548;48.778;9.252;2023-05-10T14:46:57;21.90;86.70
1123;DHT22;548;48.778;9.252;2023-05-10T14:49:23;22.20;86.30
1123;DHT22;548;48.778;9.252;2023-05-10T14:51:52;22.10;84.90
1123;DHT22;548;48.778;9.252;2023-05-10T14:54:19;21.80;86.70
1123;DHT22;548;48.778;9.252;2023-05-10T14:56:46;21.80;87.10
1123;DHT22;548;48.778;9.252;2023-05-10T14:59:15;21.60;86.50
1123;DHT22;548;48.778;9.252;2023-05-10T15:01:41;21.50;87.30
1123;DHT22;548;48.778;9.252;2023-05-10T15:04:08;21.60;87.00
1123;DHT22;548;48.778;9.252;2023-05-10T15:06:35;21.20;87.80
1123;DHT22;548;48.778;9.252;2023-05-10T15:09:03;21.10;89.50
1123;DHT22;548;48.778;9.252;2023-05-10T15:11:30;21.10;89.50
1123;DHT22;548;48.778;9.252;2023-05-10T15:13:56;20.90;89.50
1123;DHT22;548;48.778;9.252;2023-05-10T15:16:23;20.80;87.70
1123;DHT22;548;48.778;9.252;2023-05-10T15:18:50;20.80;88.50
1123;DHT22;548;48.778;9.252;2023-05-10T15:21:16;20.50;88.80
1123;DHT22;548;48.778;9.252;2023-05-10T15:23:43;20.20;88.10
1123;DHT22;548;48.778;9.252;2023-05-10T15:26:11;20.20;91.00
1123;DHT22;548;48.778;9.252;2023-05-10T15:28:38;20.40;90.90
1123;DHT22;548;48.778;9.252;2023-05-10T15:31:04;20.50;90.80
1123;DHT22;548;48.778;9.252;2023-05-10T15:33:31;20.50;90.60
1123;DHT22;548;48.778;9.252;2023-05-10T15:35:58;20.70;90.80
1123;DHT22;548;48.778;9.252;2023-05-10T15:38:24;20.60;90.60
1123;DHT22;548;48.778;9.252;2023-05-10T15:40:55;20.40;91.00
1123;DHT22;548;48.778;9.252;2023-05-10T15:43:24;20.60;91.00
1123;DHT22;548;48.778;9.252;2023-05-10T15:45:50;20.60;90.90
1123;DHT22;548;48.778;9.252;2023-05-10T15:48:17;20.50;91.80
1123;DHT22;548;48.778;9.252;2023-05-10T15:50:44;20.60;91.70
1123;DHT22;548;48.778;9.252;2023-05-10T15:53:10;20.60;91.40
1123;DHT22;548;48.778;9.252;2023-05-10T15:55:37;20.80;91.70
1123;DHT22;548;48.778;9.252;2023-05-10T15:58:04;20.90;91.10
1123;DHT22;548;48.778;9.252;2023-05-10T16:00:32;20.70;90.70
1123;DHT22;548;48.778;9.252;2023-05-10T16:02:58;20.40;90.60
1123;DHT22;548;48.778;9.252;2023-05-10T16:05:25;20.20;91.10
1123;DHT22;548;48.778;9.252;2023-05-10T16:07:56;20.40;91.70
1123;DHT22;548;48.778;9.252;2023-05-10T16:10:22;20.40;91.70
1123;DHT22;548;48.778;9.252;2023-05-10T16:12:49;20.50;92.00
1123;DHT22;548;48.778;9.252;2023-05-10T16:15:16;20.50;91.90
1123;DHT22;548;48.778;9.252;2023-05-10T16:17:44;20.50;92.00
1123;DHT22;548;48.778;9.252;2023-05-10T16:20:11;20.40;92.30
1123;DHT22;548;48.778;9.252;2023-05-10T16:22:37;20.20;91.80
1123;DHT22;548;48.778;9.252;2023-05-10T16:25:05;20.20;91.90
1123;DHT22;548;48.778;9.252;2023-05-10T16:27:32;20.20;91.60
1123;DHT22;548;48.778;9.252;2023-05-10T16:29:58;20.40;91.30
1123;DHT22;548;48.778;9.252;2023-05-10T16:32:25;20.20;90.80
1123;DHT22;548;48.778;9.252;2023-05-10T16:34:53;20.20;90.80
1123;DHT22;548;48.778;9.252;2023-05-10T16:37:20;20.40;90.50
1123;DHT22;548;48.778;9.252;2023-05-10T16:39:46;20.00;90.40
1123;DHT22;548;48.778;9.252;2023-05-10T16:42:13;19.80;90.80
1123;DHT22;548;48.778;9.252;2023-05-10T16:44:40;19.70;90.70
1123;DHT22;548;48.778;9.252;2023-05-10T16:47:06;19.80;90.90
1123;DHT22;548;48.778;9.252;2023-05-10T16:49:34;19.80;90.90
1123;DHT22;548;48.778;9.252;2023-05-10T16:52:02;19.80;91.00
1123;DHT22;548;48.778;9.252;2023-05-10T16:54:29;19.70;90.70
1123;DHT22;548;48.778;9.252;2023-05-10T16:56:56;19.50;90.80
1123;DHT22;548;48.778;9.252;2023-05-10T16:59:23;19.30;91.20
1123;DHT22;548;48.778;9.252;2023-05-10T17:01:49;19.10;91.40
1123;DHT22;548;48.778;9.252;2023-05-10T17:04:17;19.00;91.40
1123;DHT22;548;48.778;9.252;2023-05-10T17:06:44;19.10;91.40
1123;DHT22;548;48.778;9.252;2023-05-10T17:09:12;19.00;92.00
1123;DHT22;548;48.778;9.252;2023-05-10T17:11:39;19.10;91.80
1123;DHT22;548;48.778;9.252;2023-05-10T17:14:06;19.10;91.70
1123;DHT22;548;48.778;9.252;2023-05-10T17:16:33;19.30;91.60
1123;DHT22;548;48.778;9.252;2023-05-10T17:18:59;19.00;92.40
1123;DHT22;548;48.778;9.252;2023-05-10T17:21:26;18.80;93.10
1123;DHT22;548;48.778;9.252;2023-05-10T17:23:53;18.70;93.40
1123;DHT22;548;48.778;9.252;2023-05-10T17:26:21;18.80;93.00
1123;DHT22;548;48.778;9.252;2023-05-10T17:28:47;18.80;93.40
1123;DHT22;548;48.778;9.252;2023-05-10T17:31:14;18.80;93.60
1123;DHT22;548;48.778;9.252;2023-05-10T17:33:41;18.60;93.50
1123;DHT22;548;48.778;9.252;2023-05-10T17:36:08;18.30;94.20
1123;DHT22;548;48.778;9.252;2023-05-10T17:38:35;18.40;94.30
1123;DHT22;548;48.778;9.252;2023-05-10T17:41:01;18.10;94.70
1123;DHT22;548;48.778;9.252;2023-05-10T17:43:29;18.10;95.00
1123;DHT22;548;48.778;9.252;2023-05-10T17:45:56;17.80;97.20
1123;DHT22;548;48.778;9.252;2023-05-10T17:48:23;17.70;99.90
1123;DHT22;548;48.778;9.252;2023-05-10T17:50:50;17.20;99.90
1123;DHT22;548;48.778;9.252;2023-05-10T17:53:17;17.40;99.90
1123;DHT22;548;48.778;9.252;2023-05-10T17:55:43;17.10;99.90
1123;DHT22;548;48.778;9.252;2023-05-10T17:58:11;17.10;99.90
1123;DHT22;548;48.778;9.252;2023-05-10T18:00:39;17.10;99.90
1123;DHT22;548;48.778;9.252;2023-05-10T18:03:06;17.30;99.90
1123;DHT22;548;48.778;9.252;2023-05-10T18:05:34;16.90;99.90
1123;DHT22;548;48.778;9.252;2023-05-10T18:08:02;16.90;99.90
1123;DHT22;548;48.778;9.252;2023-05-10T18:10:29;16.60;99.90
1123;DHT22;548;48.778;9.252;2023-05-10T18:12:55;16.60;99.90
1123;DHT22;548;48.778;9.252;2023-05-10T18:15:22;16.80;99.90
1123;DHT22;548;48.778;9.252;2023-05-10T18:17:51;16.30;99.90
1123;DHT22;548;48.778;9.252;2023-05-10T18:20:17;16.00;99.90
1123;DHT22;548;48.778;9.252;2023-05-10T18:22:44;16.30;99.90
1123;DHT22;548;48.778;9.252;2023-05-10T18:25:11;16.20;99.90
1123;DHT22;548;48.778;9.252;2023-05-10T18:27:38;16.10;99.90
1123;DHT22;548;48.778;9.252;2023-05-10T18:30:05;16.20;99.90
1123;DHT22;548;48.778;9.252;2023-05-10T18:32:34;16.20;99.90
1123;DHT22;548;48.778;9.252;2023-05-10T18:35:04;16.10;99.90
1123;DHT22;548;48.778;9.252;2023-05-10T18:37:31;16.00;99.90
1123;DHT22;548;48.778;9.252;2023-05-10T18:39:58;16.10;99.90
1123;DHT22;548;48.778;9.252;2023-05-10T18:42:25;15.90;99.90
1123;DHT22;548;48.778;9.252;2023-05-10T18:44:53;15.90;99.90
1123;DHT22;548;48.778;9.252;2023-05-10T18:47:20;15.70;99.90
1123;DHT22;548;48.778;9.252;2023-05-10T18:49:47;15.80;99.90
1123;DHT22;548;48.778;9.252;2023-05-10T18:52:15;15.70;99.90
1123;DHT22;548;48.778;9.252;2023-05-10T18:54:41;15.60;99.90
1123;DHT22;548;48.778;9.252;2023-05-10T18:57:08;15.40;99.90
1123;DHT22;548;48.778;9.252;2023-05-10T18:59:35;15.50;99.90
1123;DHT22;548;48.778;9.252;2023-05-10T19:02:02;15.40;99.90
1123;DHT22;548;48.778;9.252;2023-05-10T19:04:28;15.30;99.90
1123;DHT22;548;48.778;9.252;2023-05-10T19:06:55;15.40;99.90
1123;DHT22;548;48.778;9.252;2023-05-10T19:09:25;15.20;99.90
1123;DHT22;548;48.778;9.252;2023-05-10T19:11:52;15.40;99.90
1123;DHT22;548;48.778;9.252;2023-05-10T19:14:18;15.20;99.90
1123;DHT22;548;48.778;9.252;2023-05-10T19:16:45;15.20;99.90
1123;DHT22;548;48.778;9.252;2023-05-10T19:19:12;15.10;99.90
1123;DHT22;548;48.778;9.252;2023-05-10T19:21:39;15.10;99.90
1123;DHT22;548;48.778;9.252;2023-05-10T19:24:06;15.10;99.90
1123;DHT22;548;48.778;9.252;2023-05-10T19:26:34;14.90;99.90
1123;DHT22;548;48.778;9.252;2023-05-10T19:29:00;14.90;99.90
1123;DHT22;548;48.778;9.252;2023-05-10T19:31:27;14.80;99.90
1123;DHT22;548;48.778;9.252;2023-05-10T19:33:54;14.80;99.90
1123;DHT22;548;48.778;9.252;2023-05-10T19:36:21;14.70;99.90
1123;DHT22;548;48.778;9.252;2023-05-10T19:38:47;14.80;99.90
1123;DHT22;548;48.778;9.252;2023-05-10T19:41:14;14.80;99.90
1123;DHT22;548;48.778;9.252;2023-05-10T19:43:42;14.80;99.90
1123;DHT22;548;48.778;9.252;2023-05-10T19:46:09;14.80;99.90
1123;DHT22;548;48.778;9.252;2023-05-10T19:48:36;14.80;99.90
1123;DHT22;548;48.778;9.252;2023-05-10T19:51:04;14.80;99.90
1123;DHT22;548;48.778;9.252;2023-05-10T19:53:31;14.90;99.90
1123;DHT22;548;48.778;9.252;2023-05-10T19:56:01;15.00;99.90
1123;DHT22;548;48.778;9.252;2023-05-10T19:58:28;14.90;99.90
1123;DHT22;548;48.778;9.252;2023-05-10T20:00:56;14.90;99.90
1123;DHT22;548;48.778;9.252;2023-05-10T20:03:23;15.00;99.90
1123;DHT22;548;48.778;9.252;2023-05-10T20:05:50;14.90;99.90
1123;DHT22;548;48.778;9.252;2023-05-10T20:08:16;14.80;99.90
1123;DHT22;548;48.778;9.252;2023-05-10T20:10:43;14.50;99.90
1123;DHT22;548;48.778;9.252;2023-05-10T20:13:10;14.50;99.90
1123;DHT22;548;48.778;9.252;2023-05-10T20:15:37;14.60;99.90
1123;DHT22;548;48.778;9.252;2023-05-10T20:18:05;14.50;99.90
1123;DHT22;548;48.778;9.252;2023-05-10T20:20:31;14.40;99.90
1123;DHT22;548;48.778;9.252;2023-05-10T20:22:58;14.60;99.90
1123;DHT22;548;48.778;9.252;2023-05-10T20:25:25;14.60;99.90
1123;DHT22;548;48.778;9.252;2023-05-10T20:27:52;14.60;99.90
1123;DHT22;548;48.778;9.252;2023-05-10T20:30:18;14.60;99.90
1123;DHT22;548;48.778;9.252;2023-05-10T20:32:45;14.70;99.90
1123;DHT22;548;48.778;9.252;2023-05-10T20:35:13;14.80;99.90
1123;DHT22;548;48.778;9.252;2023-05-10T20:37:40;14.80;99.90
1123;DHT22;548;48.778;9.252;2023-05-10T20:40:08;14.80;99.90
1123;DHT22;548;48.778;9.252;2023-05-10T20:42:35;14.80;99.90
1123;DHT22;548;48.778;9.252;2023-05-10T20:45:02;14.70;99.90
1123;DHT22;548;48.778;9.252;2023-05-10T20:47:29;14.70;99.90
1123;DHT22;548;48.778;9.252;2023-05-10T20:49:56;14.60;99.90
1123;DHT22;548;48.778;9.252;2023-05-10T20:52:24;14.60;99.90
1123;DHT22;548;48.778;9.252;2023-05-10T20:54:51;14.40;99.90
1123;DHT22;548;48.778;9.252;2023-05-10T20:57:18;14.50;99.90
1123;DHT22;548;48.778;9.252;2023-05-10T20:59:45;14.50;99.90
1123;DHT22;548;48.778;9.252;2023-05-10T21:02:12;14.40;99.90
1123;DHT22;548;48.778;9.252;2023-05-10T21:04:39;14.50;99.90
1123;DHT22;548;48.778;9.252;2023-05-10T21:07:06;14.40;99.90
1123;DHT22;548;48.778;9.252;2023-05-10T21:09:34;14.50;99.90
1123;DHT22;548;48.778;9.252;2023-05-10T21:12:01;14.50;99.90
1123;DHT22;548;48.778;9.252;2023-05-10T21:14:27;14.60;99.90
1123;DHT22;548;48.778;9.252;2023-05-10T21:16:54;14.60;99.90
1123;DHT22;548;48.778;9.252;2023-05-10T21:19:21;14.60;99.90
1123;DHT22;548;48.778;9.252;2023-05-10T21:21:48;14.60;99.90
1123;DHT22;548;48.778;9.252;2023-05-10T21:24:14;14.60;99.90
1123;DHT22;548;48.778;9.252;2023-05-10T21:26:42;14.60;99.90
1123;DHT22;548;48.778;9.252;2023-05-10T21:29:09;14.50;99.90
1123;DHT22;548;48.778;9.252;2023-05-10T21:31:36;14.30;99.90
1123;DHT22;548;48.778;9.252;2023-05-10T21:34:02;14.70;99.90
1123;DHT22;548;48.778;9.252;2023-05-10T21:36:29;14.70;99.90
1123;DHT22;548;48.778;9.252;2023-05-10T21:38:56;14.60;99.90
1123;DHT22;548;48.778;9.252;2023-05-10T21:41:23;14.60;99.90
1123;DHT22;548;48.778;9.252;2023-05-10T21:43:51;14.40;99.90
1123;DHT22;548;48.778;9.252;2023-05-10T21:46:18;14.60;99.90
1123;DHT22;548;48.778;9.252;2023-05-10T21:48:44;14.60;99.90
1123;DHT22;548;48.778;9.252;2023-05-10T21:51:11;14.60;99.90
1123;DHT22;548;48.778;9.252;2023-05-10T21:53:37;14.70;99.90
1123;DHT22;548;48.778;9.252;2023-05-10T21:56:05;14.60;99.90
1123;DHT22;548;48.778;9.252;2023-05-10T21:58:32;14.40;99.90
1123;DHT22;548;48.778;9.252;2023-05-10T22:01:00;14.50;99.90
1123;DHT22;548;48.778;9.252;2023-05-10T22:03:26;14.40;99.90
1123;DHT22;548;48.778;9.252;2023-05-10T22:05:53;14.40;99.90
1123;DHT22;548;48.778;9.252;2023-05-10T22:08:20;14.40;99.90
1123;DHT22;548;48.778;9.252;2023-05-10T22:10:47;14.40;99.90
1123;DHT22;548;48.778;9.252;2023-05-10T22:13:14;14.40;99.90
1123;DHT22;548;48.778;9.252;2023-05-10T22:15:40;14.70;99.90
1123;DHT22;548;48.778;9.252;2023-05-10T22:18:09;14.20;99.90
1123;DHT22;548;48.778;9.252;2023-05-10T22:20:36;14.20;99.90
1123;DHT22;548;48.778;9.252;2023-05-10T22:23:03;14.20;99.90
1123;DHT22;548;48.778;9.252;2023-05-10T22:25:30;14.20;99.90
1123;DHT22;548;48.778;9.252;2023-05-10T22:27:56;14.10;99.90
1123;DHT22;548;48.778;9.252;2023-05-10T22:30:23;14.10;99.90
1123;DHT22;548;48.778;9.252;2023-05-10T22:32:50;14.20;99.90
1123;DHT22;548;48.778;9.252;2023-05-10T22:35:18;14.20;99.90
1123;DHT22;548;48.778;9.252;2023-05-10T22:37:45;14.00;99.90
1123;DHT22;548;48.778;9.252;2023-05-10T22:40:12;13.90;99.90
1123;DHT22;548;48.778;9.252;2023-05-10T22:42:38;13.90;99.90
1123;DHT22;548;48.778;9.252;2023-05-10T22:45:06;13.90;99.90
1123;DHT22;548;48.778;9.252;2023-05-10T22:47:33;13.80;99.90
1123;DHT22;548;48.778;9.252;2023-05-10T22:50:00;13.80;99.90
1123;DHT22;548;48.778;9.252;2023-05-10T22:52:29;13.90;99.90
